INFORMAÇÕES METEOROLÓGICAS
METAR FOR KCON
ADDS - METARS form results

(0730 UTC 20 November 2018)
Data provider http://aviationweather.gov/metar/data/
 
METAR text: KCON 200714Z AUTO 00000KT 1/2SM -SN FG BKN003 OVC011 00/M01 A2997 RMK AO2 P0002 T00001006
Conditions at: KCON (CONCORD , NH, US) observed 0714 UTC 20 November 2018
Temperature: 0.0°C (32°F)
Dewpoint: -0.6°C (31°F) [RH = 96%]
Pressure (altimeter): 29.97 inches Hg (1015.0 mb)
Winds: calm
Visibility: 0.50 miles (0.80 km)
Ceiling: 300 feet AGL
Clouds: broken clouds at 300 feet AGL
overcast cloud deck at 1100 feet AGL
Weather: -SN FG  (light snow, fog)

METAR text: KCON 200703Z AUTO 00000KT 1/2SM -SN FG SCT003 OVC011 00/M01 A2997 RMK AO2 P0001 T00001006
Conditions at: KCON (CONCORD , NH, US) observed 0703 UTC 20 November 2018
Temperature: 0.0°C (32°F)
Dewpoint: -0.6°C (31°F) [RH = 96%]
Pressure (altimeter): 29.97 inches Hg (1015.0 mb)
Winds: calm
Visibility: 0.50 miles (0.80 km)
Ceiling: 1100 feet AGL
Clouds: scattered clouds at 300 feet AGL
overcast cloud deck at 1100 feet AGL
Weather: -SN FG  (light snow, fog)

METAR text: KCON 200651Z AUTO 00000KT 1/2SM SN FG VV010 00/M01 A2997 RMK AO2 SLP154 P0003 T00001006
Conditions at: KCON (CONCORD , NH, US) observed 0651 UTC 20 November 2018
Temperature: 0.0°C (32°F)
Dewpoint: -0.6°C (31°F) [RH = 96%]
Pressure (altimeter): 29.97 inches Hg (1015.0 mb)
[Sea-level pressure: 1015.4 mb]
Winds: calm
Visibility: 0.50 miles (0.80 km)
Ceiling: indefinite ceiling with vertical visibility of 1000 feet AGL
Clouds: obscured sky
Weather: SN FG  (moderate snow, fog)

METAR text: KCON 200641Z AUTO 00000KT 3/4SM -SN BR FEW002 OVC009 00/M01 A2997 RMK AO2 P0002 T00001006
Conditions at: KCON (CONCORD , NH, US) observed 0641 UTC 20 November 2018
Temperature: 0.0°C (32°F)
Dewpoint: -0.6°C (31°F) [RH = 96%]
Pressure (altimeter): 29.97 inches Hg (1015.0 mb)
Winds: calm
Visibility: 0.75 miles (1.21 km)
Ceiling: 900 feet AGL
Clouds: few clouds at 200 feet AGL
overcast cloud deck at 900 feet AGL
Weather: -SN BR  (light snow, mist)

Forecast for: KCON (CONCORD , NH, US)
Text: KCON 200548Z 2006/2106 00000KT 2SM BR OVC035
Forecast period: 0600 to 0800 UTC 20 November 2018
Forecast type: FROM: standard forecast or significant change
Winds: calm
Visibility: 2.00 miles (3.22 km)
Ceiling: 3500 feet AGL
Clouds: overcast cloud deck at 3500 feet AGL
Weather: BR  (mist)
Text: FM200800 00000KT 1SM -SN BR OVC004
Forecast period: 0800 to 1700 UTC 20 November 2018
Forecast type: FROM: standard forecast or significant change
Winds: calm
Visibility: 1.00 miles (1.61 km)
Ceiling: 400 feet AGL
Clouds: overcast cloud deck at 400 feet AGL
Weather: -SN BR  (light snow, mist)
Text: FM201700 35005KT 2SM -SN BR OVC008
Forecast period: 1700 to 2300 UTC 20 November 2018
Forecast type: FROM: standard forecast or significant change
Winds: from the N (350 degrees) at 6 MPH (5 knots; 2.6 m/s)
Visibility: 2.00 miles (3.22 km)
Ceiling: 800 feet AGL
Clouds: overcast cloud deck at 800 feet AGL
Weather: -SN BR  (light snow, mist)
Text: FM202300 VRB03KT 4SM BR BKN012
Forecast period: 2300 UTC 20 November 2018 to 0600 UTC 21 November 2018
Forecast type: FROM: standard forecast or significant change
Winds: variable direction winds at 3 MPH (3 knots; 1.5 m/s)
Visibility: 4 miles (6 km)
Ceiling: 1200 feet AGL
Clouds: broken clouds at 1200 feet AGL
Weather: BR  (mist)

 MAPA DO AEROPORTO

 INFORMAÇÕES DA PISTA
Pista 03 Tamanho da pista 3999 ft Largura da pista 150 ft
Elevação da pista 336 ft Ranhura da pista 440 ft Proa da pista 15
Pista 21 Tamanho da pista 3999 ft Largura da pista 150 ft
Elevação da pista 346 ft Ranhura da pista 0 ft Proa da pista 195
Pista 12 Tamanho da pista 3200 ft Largura da pista 75 ft
Elevação da pista 340 ft Ranhura da pista 0 ft Proa da pista 105
Pista 30 Tamanho da pista 3200 ft Largura da pista 75 ft
Elevação da pista 346 ft Ranhura da pista 0 ft Proa da pista 285
Pista 17 Tamanho da pista 6005 ft Largura da pista 100 ft
Elevação da pista 340 ft Ranhura da pista 640 ft Proa da pista 155
Pista 35 Tamanho da pista 6005 ft Largura da pista 100 ft
Elevação da pista 332 ft Ranhura da pista 0 ft Proa da pista 335

 FREQUÊNCIAS DO AEROPORTO
Tipo A/D Nome BOSTON APP Frequência 127.35 MHZ
Tipo ASOS Nome ASOS Frequência 132.32 MHZ
Tipo CLD Nome CLNC DEL Frequência 133.65 MHZ
Tipo OPS Nome ARNG OPS Frequência 32.1 MHZ
Tipo RDO Nome BANGOR RDO Frequência 122.3 MHZ
Tipo UNIC Nome CTAF/UNICO Frequência 122.7 MHZ

 AUXÍLIOS DE NAVEGAÇÃO PRÓXIMOS AO AEROPORTO





Powered by Virtual Airlines Manager [v2.6.2]